Time;durP1;ratioP1;P1;durP2;ratioP2;P2;SDS_P1;SDS_P2;PMS_P1;PMS_P2;Temp;Humidity;BMP_temperature;BMP_pressure;BME280_temperature;BME280_humidity;BME280_pressure;Samples;Min_cycle;Max_cycle;Signal;HPM_P1;HPM_P2
2024/01/26 00:02:21;;;;;;;10.63;5.80;;;;;;;10.19;73.52;102318.34;4944522;29;20051;-61
2024/01/26 00:04:52;;;;;;;11.60;5.63;;;;;;;10.20;73.33;102321.91;4945171;28;20051;-61
2024/01/26 00:07:20;;;;;;;9.13;6.97;;;;;;;10.19;73.72;102315.66;4949254;29;20071;-61
2024/01/26 00:09:49;;;;;;;9.52;6.20;;;;;;;10.20;73.83;102305.78;4941889;29;20048;-61
2024/01/26 00:12:18;;;;;;;10.52;5.78;;;;;;;10.19;73.75;102302.22;4947601;29;20051;-61
2024/01/26 00:14:46;;;;;;;9.85;6.13;;;;;;;10.20;73.60;102305.78;4946927;29;20050;-59
2024/01/26 00:17:15;;;;;;;8.88;6.65;;;;;;;10.18;73.95;102297.88;4946670;29;20051;-60
2024/01/26 00:19:43;;;;;;;8.48;5.75;;;;;;;10.19;73.88;102306.78;4949052;29;20450;-60
2024/01/26 00:22:11;;;;;;;11.45;6.82;;;;;;;10.19;73.51;102302.22;4945556;29;20083;-60
2024/01/26 00:24:39;;;;;;;10.05;5.90;;;;;;;10.20;73.50;102308.47;4948591;29;20066;-60
2024/01/26 00:27:06;;;;;;;6.60;5.05;;;;;;;10.20;73.37;102305.78;4947237;29;20064;-60
2024/01/26 00:29:34;;;;;;;7.55;4.85;;;;;;;10.20;73.45;102298.56;4947744;29;20068;-60
2024/01/26 00:32:02;;;;;;;7.13;4.97;;;;;;;10.21;73.65;102307.44;4942982;29;20055;-61
2024/01/26 00:34:32;;;;;;;9.25;4.97;;;;;;;10.21;73.53;102299.41;4947816;29;20158;-60
2024/01/26 00:37:01;;;;;;;6.38;5.25;;;;;;;10.20;73.73;102303.09;4950608;29;20109;-59
2024/01/26 00:39:29;;;;;;;7.45;5.20;;;;;;;10.20;73.92;102297.72;4938110;29;20044;-60
2024/01/26 00:41:57;;;;;;;6.60;4.85;;;;;;;10.18;73.53;102300.56;4944111;29;20056;-59
2024/01/26 00:44:25;;;;;;;5.63;4.40;;;;;;;10.19;73.43;102296.03;4946346;29;20079;-60
2024/01/26 00:46:53;;;;;;;10.05;5.50;;;;;;;10.19;73.72;102299.53;4939679;29;20048;-60
2024/01/26 00:49:20;;;;;;;6.55;4.82;;;;;;;10.18;73.89;102300.56;4942781;29;20063;-60
2024/01/26 00:52:03;;;;;;;8.25;4.80;;;;;;;10.19;73.76;102304.09;4948367;29;20075;-61
2024/01/26 00:54:31;;;;;;;7.25;4.30;;;;;;;10.18;73.54;102295.19;4943740;29;20083;-59
2024/01/26 00:56:59;;;;;;;7.03;4.35;;;;;;;10.19;73.96;102282.59;4947159;29;20430;-60
2024/01/26 00:59:27;;;;;;;7.38;4.45;;;;;;;10.17;73.90;102285.47;4941300;29;20052;-59
2024/01/26 01:01:55;;;;;;;6.45;4.55;;;;;;;10.17;73.83;102290.84;4946579;29;20047;-60
2024/01/26 01:04:23;;;;;;;8.48;4.60;;;;;;;10.18;73.98;102289.81;4944901;29;20044;-59
2024/01/26 01:06:50;;;;;;;6.38;4.57;;;;;;;10.17;73.86;102280.09;4948370;29;20060;-59
2024/01/26 01:09:19;;;;;;;5.90;4.20;;;;;;;10.18;73.46;102288.97;4948488;29;20486;-59
2024/01/26 01:11:47;;;;;;;5.18;3.83;;;;;;;10.17;73.67;102288.16;4946333;29;20063;-59
2024/01/26 01:14:18;;;;;;;4.78;3.55;;;;;;;10.18;73.88;102281.75;4947456;29;20047;-59
2024/01/26 01:16:46;;;;;;;4.80;3.72;;;;;;;10.19;73.62;102287.97;4941967;29;20470;-59
2024/01/26 01:19:14;;;;;;;5.57;4.05;;;;;;;10.17;73.79;102280.09;4948302;29;20094;-60
2024/01/26 01:21:42;;;;;;;5.25;3.80;;;;;;;10.20;73.96;102273.53;4946268;29;20435;-60
2024/01/26 01:24:10;;;;;;;5.18;3.70;;;;;;;10.18;73.95;102276.38;4947532;29;20063;-59
2024/01/26 01:26:39;;;;;;;5.45;3.28;;;;;;;10.17;73.57;102260.44;4939635;29;20059;-60
2024/01/26 01:29:07;;;;;;;5.38;3.47;;;;;;;10.17;73.68;102249.69;4944881;29;20546;-60
2024/01/26 01:31:34;;;;;;;4.13;3.17;;;;;;;10.16;73.58;102248.88;4947954;29;20047;-60
2024/01/26 01:34:02;;;;;;;4.50;3.20;;;;;;;10.17;73.63;102247.00;4946440;29;20050;-59
2024/01/26 01:36:30;;;;;;;5.20;3.40;;;;;;;10.17;73.53;102245.16;4946833;29;20673;-60
2024/01/26 01:38:58;;;;;;;5.13;3.40;;;;;;;10.17;73.63;102247.00;4947294;29;20056;-61
2024/01/26 01:41:25;;;;;;;5.95;3.58;;;;;;;10.17;73.67;102242.47;4946770;29;20044;-60
2024/01/26 01:43:58;;;;;;;5.20;3.50;;;;;;;10.19;74.01;102247.66;4945737;29;20075;-60
2024/01/26 01:46:26;;;;;;;5.97;3.28;;;;;;;10.19;73.63;102253.03;4946815;29;20044;-60
2024/01/26 01:48:54;;;;;;;5.25;3.10;;;;;;;10.18;73.32;102240.63;4946661;29;20055;-60
2024/01/26 01:51:23;;;;;;;4.28;2.95;;;;;;;10.17;73.77;102236.28;4949005;29;20050;-60
2024/01/26 01:53:51;;;;;;;4.05;3.03;;;;;;;10.16;73.48;102232.75;4946449;29;20072;-60
2024/01/26 01:56:23;;;;;;;4.45;3.05;;;;;;;10.18;73.82;102237.94;4945612;29;20118;-60
2024/01/26 01:58:52;;;;;;;4.05;2.75;;;;;;;10.16;73.56;102235.44;4943978;29;20055;-60
2024/01/26 02:01:21;;;;;;;4.30;2.80;;;;;;;10.18;73.96;102235.25;4945232;29;20114;-60
2024/01/26 02:03:49;;;;;;;4.47;3.10;;;;;;;10.17;73.93;102231.72;4947115;29;20050;-60
2024/01/26 02:06:17;;;;;;;4.90;3.15;;;;;;;10.18;74.05;102229.88;4946992;29;20498;-60
2024/01/26 02:08:45;;;;;;;3.80;2.70;;;;;;;10.19;73.56;102220.78;4937088;29;20111;-60
2024/01/26 02:11:13;;;;;;;4.88;3.03;;;;;;;10.18;73.41;102222.66;4946255;29;20047;-60
2024/01/26 02:13:41;;;;;;;4.65;2.78;;;;;;;10.19;73.46;102226.16;4945956;29;20047;-60
2024/01/26 02:16:09;;;;;;;3.63;2.42;;;;;;;10.19;73.51;102210.88;4946060;29;20056;-62
2024/01/26 02:18:38;;;;;;;3.65;2.17;;;;;;;10.20;73.31;102203.69;4946920;29;20048;-60
2024/01/26 02:21:06;;;;;;;4.50;2.25;;;;;;;10.20;73.51;102199.16;4943655;29;20051;-60
2024/01/26 02:23:41;;;;;;;3.33;2.20;;;;;;;10.20;73.43;102203.69;4946656;29;20048;-60
2024/01/26 02:26:09;;;;;;;5.68;2.30;;;;;;;10.19;73.42;102202.81;4946440;29;20257;-59
2024/01/26 02:28:37;;;;;;;3.40;2.20;;;;;;;10.20;73.45;102198.31;4939721;29;20130;-60
2024/01/26 02:31:05;;;;;;;3.83;2.40;;;;;;;10.20;73.61;102195.63;4943820;29;20057;-59
2024/01/26 02:33:33;;;;;;;2.35;2.00;;;;;;;10.20;73.53;102196.47;4945651;29;20055;-59
2024/01/26 02:36:01;;;;;;;4.80;2.90;;;;;;;10.20;73.58;102190.25;4945446;29;20561;-62
2024/01/26 02:38:29;;;;;;;6.18;2.75;;;;;;;10.21;73.60;102189.25;4947217;29;20120;-59
2024/01/26 02:40:58;;;;;;;3.78;2.33;;;;;;;10.20;73.71;102176.81;4946026;29;20074;-59
2024/01/26 02:43:26;;;;;;;4.32;2.42;;;;;;;10.20;73.46;102174.13;4944821;29;20047;-59
2024/01/26 02:45:54;;;;;;;4.85;2.20;;;;;;;10.20;73.40;102164.22;4944910;29;20055;-60
2024/01/26 02:48:23;;;;;;;2.72;2.00;;;;;;;10.22;73.49;102169.41;4945143;29;20072;-59
2024/01/26 02:50:51;;;;;;;3.15;1.95;;;;;;;10.20;73.43;102158.84;4946519;29;20114;-59
2024/01/26 02:53:19;;;;;;;3.70;2.20;;;;;;;10.20;73.70;102158.84;4943034;29;20055;-59
2024/01/26 02:55:47;;;;;;;2.25;1.75;;;;;;;10.20;73.79;102160.72;4945659;29;20048;-60
2024/01/26 02:58:16;;;;;;;3.58;2.00;;;;;;;10.20;73.82;102152.66;4948885;29;20137;-61
2024/01/26 03:00:45;;;;;;;4.50;2.10;;;;;;;10.20;73.60;102152.66;4939431;29;20051;-59
2024/01/26 03:03:14;;;;;;;5.07;2.20;;;;;;;10.20;73.65;102156.16;4946738;29;20055;-60
2024/01/26 03:05:42;;;;;;;6.32;2.95;;;;;;;10.20;73.66;102152.66;4954986;29;20127;-60
2024/01/26 03:08:10;;;;;;;3.42;2.20;;;;;;;10.20;73.56;102140.03;4965469;29;20047;-60
2024/01/26 03:10:37;;;;;;;2.08;1.88;;;;;;;10.21;73.60;102132.81;4955977;29;20086;-60
2024/01/26 03:13:05;;;;;;;3.60;1.90;;;;;;;10.20;73.52;102133.84;4957937;29;20051;-61
2024/01/26 03:15:35;;;;;;;2.42;2.10;;;;;;;10.20;73.46;102139.22;4963546;29;20047;-60
2024/01/26 03:18:03;;;;;;;3.78;2.35;;;;;;;10.20;73.62;102133.84;4963736;29;20054;-59
2024/01/26 03:20:32;;;;;;;2.67;2.20;;;;;;;10.20;73.51;102117.72;4965588;28;20058;-59
2024/01/26 03:23:00;;;;;;;3.20;1.98;;;;;;;10.19;73.47;102111.47;4962863;29;20051;-60
2024/01/26 03:25:27;;;;;;;4.35;2.30;;;;;;;10.18;73.68;102107.13;4965277;29;20137;-60
2024/01/26 03:27:55;;;;;;;3.17;2.08;;;;;;;10.19;73.91;102099.91;4964617;29;20066;-60
2024/01/26 03:30:23;;;;;;;3.05;2.17;;;;;;;10.19;73.88;102107.97;4960409;29;20051;-60
2024/01/26 03:32:52;;;;;;;3.95;2.30;;;;;;;10.18;73.97;102104.44;4959042;29;20102;-62
2024/01/26 03:35:21;;;;;;;2.67;1.88;;;;;;;10.18;73.79;102095.56;4960802;29;20048;-60
2024/01/26 03:37:48;;;;;;;3.50;2.17;;;;;;;10.17;73.63;102102.78;4959733;29;20051;-60
2024/01/26 03:40:16;;;;;;;3.22;1.95;;;;;;;10.19;73.84;102091.84;4966194;28;20043;-61
2024/01/26 03:42:44;;;;;;;3.47;2.10;;;;;;;10.18;73.74;102092.88;4968034;29;20067;-59
2024/01/26 03:45:12;;;;;;;2.88;2.00;;;;;;;10.18;73.61;102101.75;4964581;29;20047;-60
2024/01/26 03:47:40;;;;;;;2.95;2.22;;;;;;;10.19;73.84;102103.44;4967989;29;20047;-61
2024/01/26 03:50:10;;;;;;;3.25;1.90;;;;;;;10.18;73.77;102096.38;4968689;29;20090;-60
2024/01/26 03:52:38;;;;;;;3.83;2.03;;;;;;;10.19;73.54;102100.72;4964641;29;20047;-62
2024/01/26 03:55:07;;;;;;;3.22;2.00;;;;;;;10.18;73.87;102088.31;4964143;29;20048;-60
2024/01/26 03:57:36;;;;;;;7.20;2.70;;;;;;;10.20;73.88;102088.16;4967565;29;20047;-60
2024/01/26 04:00:10;;;;;;;4.68;2.10;;;;;;;10.18;73.73;102072.22;4963191;29;20098;-61
2024/01/26 04:02:38;;;;;;;4.03;2.20;;;;;;;10.18;73.67;102082.94;4967687;28;20051;-60
2024/01/26 04:05:06;;;;;;;4.07;2.70;;;;;;;10.18;73.89;102085.63;4959628;28;20067;-60
2024/01/26 04:07:35;;;;;;;5.53;2.40;;;;;;;10.18;73.99;102072.22;4952370;29;20494;-61
2024/01/26 04:10:03;;;;;;;4.20;2.97;;;;;;;10.18;74.09;102076.75;4950835;29;20044;-60
2024/01/26 04:12:31;;;;;;;3.53;2.75;;;;;;;10.16;74.14;102074.25;4939331;29;20084;-61
2024/01/26 04:14:59;;;;;;;4.75;3.25;;;;;;;10.18;74.30;102082.13;4947747;29;20107;-61
2024/01/26 04:17:27;;;;;;;4.18;2.70;;;;;;;10.17;74.41;102065.16;4942896;29;20071;-61
2024/01/26 04:19:54;;;;;;;5.00;2.83;;;;;;;10.19;74.64;102063.13;4949123;29;20063;-60
2024/01/26 04:22:22;;;;;;;5.00;3.13;;;;;;;10.20;74.36;102055.94;4948588;29;20104;-60
2024/01/26 04:24:51;;;;;;;7.05;3.20;;;;;;;10.19;74.54;102044.31;4940808;29;20245;-59
2024/01/26 04:27:19;;;;;;;4.72;2.83;;;;;;;10.20;74.14;102037.97;4946820;29;20498;-60
2024/01/26 04:29:47;;;;;;;5.72;3.28;;;;;;;10.20;74.65;102029.91;4946872;29;20118;-62
2024/01/26 04:32:15;;;;;;;5.40;3.00;;;;;;;10.21;74.34;102030.72;4944083;29;20050;-59
2024/01/26 04:34:43;;;;;;;5.05;2.90;;;;;;;10.20;74.77;102027.22;4948665;29;20059;-59
2024/01/26 04:37:10;;;;;;;4.07;3.05;;;;;;;10.22;74.92;102018.97;4946206;29;20063;-60
2024/01/26 04:39:39;;;;;;;4.07;3.08;;;;;;;10.21;74.44;102015.44;4944681;29;20075;-59
2024/01/26 04:42:08;;;;;;;6.82;3.20;;;;;;;10.22;74.64;102013.59;4943217;29;20055;-60
2024/01/26 04:44:36;;;;;;;4.13;3.15;;;;;;;10.22;74.66;102014.41;4942457;29;20457;-60
2024/01/26 04:47:04;;;;;;;5.40;3.10;;;;;;;10.22;74.61;102003.66;4945432;29;20078;-60
2024/01/26 04:49:32;;;;;;;4.50;3.20;;;;;;;10.22;74.51;102003.66;4936575;29;20106;-59
2024/01/26 04:52:01;;;;;;;4.47;3.03;;;;;;;10.21;74.57;102010.06;4946074;29;20050;-60
2024/01/26 04:54:29;;;;;;;4.15;3.40;;;;;;;10.20;74.59;102002.19;4947922;29;20107;-60
2024/01/26 04:56:57;;;;;;;5.00;3.10;;;;;;;10.23;74.61;102002.66;4944161;29;20054;-60
2024/01/26 04:59:26;;;;;;;4.93;2.80;;;;;;;10.24;74.60;101998.94;4944729;29;20075;-61
2024/01/26 05:01:54;;;;;;;5.60;3.60;;;;;;;10.25;74.59;102010.53;4947660;29;20050;-60
2024/01/26 05:04:21;;;;;;;4.65;3.20;;;;;;;10.24;74.53;102004.31;4948219;28;20486;-60
2024/01/26 05:06:49;;;;;;;5.53;2.95;;;;;;;10.25;74.31;102005.16;4943262;29;20407;-60
2024/01/26 05:09:17;;;;;;;4.97;3.50;;;;;;;10.25;74.58;101999.78;4947809;29;20051;-60
2024/01/26 05:11:45;;;;;;;6.70;3.53;;;;;;;10.24;74.29;102000.78;4947342;29;20062;-60
2024/01/26 05:14:13;;;;;;;3.92;3.00;;;;;;;10.24;74.54;101996.25;4944539;29;20142;-60
2024/01/26 05:16:42;;;;;;;6.13;3.20;;;;;;;10.24;74.28;101990.06;4937668;29;20060;-59
2024/01/26 05:19:10;;;;;;;5.57;3.45;;;;;;;10.24;74.33;101982.81;4948447;29;20110;-61
2024/01/26 05:21:40;;;;;;;4.97;3.17;;;;;;;10.23;74.39;101970.41;4947473;29;20051;-60
2024/01/26 05:24:08;;;;;;;8.05;3.70;;;;;;;10.23;74.56;101967.72;4948382;29;20474;-60
2024/01/26 05:26:38;;;;;;;6.90;3.33;;;;;;;10.22;74.61;101971.44;4943194;29;20593;-60
2024/01/26 05:29:07;;;;;;;9.85;3.55;;;;;;;10.22;74.61;101971.44;4942176;29;20060;-60
2024/01/26 05:31:35;;;;;;;7.35;4.03;;;;;;;10.22;74.11;101974.13;4944401;29;20418;-61
2024/01/26 05:34:04;;;;;;;5.78;3.85;;;;;;;10.21;74.50;101968.94;4944594;29;20589;-61
2024/01/26 05:36:32;;;;;;;4.78;3.30;;;;;;;10.20;74.54;101952.00;4945111;29;20142;-61
2024/01/26 05:39:00;;;;;;;6.22;3.22;;;;;;;10.21;74.62;101958.19;4929772;29;20076;-61
2024/01/26 05:41:28;;;;;;;7.70;4.47;;;;;;;10.21;74.64;101942.06;4946489;29;20726;-60
2024/01/26 05:43:56;;;;;;;6.80;3.70;;;;;;;10.34;74.48;101928.75;4943784;29;20051;-60
2024/01/26 05:46:24;;;;;;;6.22;3.30;;;;;;;10.29;74.39;101942.78;4943653;29;20047;-60
2024/01/26 05:48:50;;;;;;;5.55;3.47;;;;;;;10.32;74.12;101937.00;4948103;29;20114;-60
2024/01/26 05:51:20;;;;;;;6.10;3.97;;;;;;;10.31;74.26;101932.66;4945944;29;20556;-60
2024/01/26 05:53:48;;;;;;;4.85;3.00;;;;;;;10.32;74.18;101926.25;4944350;29;20044;-61
2024/01/26 05:56:16;;;;;;;4.68;3.20;;;;;;;10.32;74.19;101941.56;4939885;29;20050;-61
2024/01/26 05:58:43;;;;;;;6.07;3.20;;;;;;;10.29;74.26;101931.19;4944698;29;20059;-62
2024/01/26 06:01:11;;;;;;;4.50;3.33;;;;;;;10.27;74.42;101942.13;4944318;29;20225;-59
2024/01/26 06:03:39;;;;;;;5.00;3.25;;;;;;;10.26;74.38;101937.78;4942505;29;20107;-62
2024/01/26 06:06:08;;;;;;;3.63;2.80;;;;;;;10.26;74.29;101921.66;4943593;28;20060;-59
2024/01/26 06:08:40;;;;;;;6.38;3.47;;;;;;;10.23;74.35;101919.38;4946813;29;20055;-61
2024/01/26 06:11:12;;;;;;;5.75;3.42;;;;;;;10.25;74.54;101922.69;4941640;29;20064;-62
2024/01/26 06:13:40;;;;;;;4.72;3.47;;;;;;;10.27;74.43;101927.88;4952338;29;20080;-61
2024/01/26 06:16:09;;;;;;;5.95;4.20;;;;;;;10.25;74.30;101917.31;4942559;29;20059;-62
2024/01/26 06:18:36;;;;;;;3.97;3.17;;;;;;;10.27;74.50;101925.19;4947247;29;20553;-59
2024/01/26 06:21:05;;;;;;;3.78;3.08;;;;;;;10.27;74.58;101920.63;4938575;29;20978;-60
2024/01/26 06:23:33;;;;;;;5.80;3.70;;;;;;;10.27;74.70;101917.13;4943667;29;20044;-60
2024/01/26 06:26:02;;;;;;;4.40;3.28;;;;;;;10.26;74.61;101905.53;4942794;29;20139;-60
2024/01/26 06:28:30;;;;;;;5.43;3.80;;;;;;;10.27;74.73;101907.22;4944336;29;20051;-61
2024/01/26 06:30:57;;;;;;;8.75;5.07;;;;;;;10.29;74.74;101899.78;4944387;29;20289;-60
2024/01/26 06:33:25;;;;;;;5.68;4.13;;;;;;;10.29;74.97;101907.00;4937863;29;20048;-60
2024/01/26 06:35:53;;;;;;;4.35;3.47;;;;;;;10.26;74.67;101897.47;4944617;29;20574;-60
2024/01/26 06:38:21;;;;;;;4.93;3.50;;;;;;;10.26;74.88;101905.53;4945021;29;20107;-60
2024/01/26 06:40:49;;;;;;;5.07;3.50;;;;;;;10.27;75.09;101911.75;4944867;29;20071;-59
2024/01/26 06:43:19;;;;;;;6.78;3.92;;;;;;;10.27;74.86;101909.91;4945845;29;20043;-61
2024/01/26 06:45:47;;;;;;;6.07;3.90;;;;;;;10.36;74.68;101906.03;4944975;29;20052;-60
2024/01/26 06:48:15;;;;;;;5.32;3.50;;;;;;;10.33;74.62;101909.13;4945908;29;20056;-61
2024/01/26 06:50:43;;;;;;;5.47;3.60;;;;;;;10.34;74.85;101908.09;4945736;29;20066;-61
2024/01/26 06:53:11;;;;;;;7.57;3.78;;;;;;;10.31;74.96;101915.72;4937473;29;20040;-61
2024/01/26 06:55:38;;;;;;;6.03;3.75;;;;;;;10.39;74.75;101902.97;4945547;29;20048;-59
2024/01/26 06:58:06;;;;;;;5.55;3.60;;;;;;;10.39;74.77;101900.28;4596147;28;10000416;-60
2024/01/26 07:00:35;;;;;;;4.13;3.30;;;;;;;10.38;74.96;101904.00;4939901;29;20051;-59
2024/01/26 07:03:10;;;;;;;4.32;3.28;;;;;;;10.39;74.95;101900.28;4942612;29;20075;-60
2024/01/26 07:05:38;;;;;;;5.03;3.50;;;;;;;10.39;75.07;101894.06;4962783;28;20114;-61
2024/01/26 07:08:07;;;;;;;3.85;2.97;;;;;;;10.38;75.00;101898.63;4959725;29;20051;-62
2024/01/26 07:10:34;;;;;;;5.18;3.35;;;;;;;10.42;74.89;101901.72;4955654;28;20059;-59
2024/01/26 07:13:02;;;;;;;5.70;2.90;;;;;;;10.41;74.66;101894.69;4958434;28;20527;-63
2024/01/26 07:15:31;;;;;;;6.93;4.15;;;;;;;10.44;76.13;101886.22;4959896;29;20077;-58
2024/01/26 07:18:00;;;;;;;11.07;3.67;;;;;;;10.43;75.45;101871.97;4962237;29;20043;-58
2024/01/26 07:20:29;;;;;;;13.30;3.97;;;;;;;10.41;75.42;101873.19;4959728;29;20510;-59
2024/01/26 07:22:56;;;;;;;4.53;2.85;;;;;;;10.38;75.57;101873.59;4960449;29;20050;-59
2024/01/26 07:25:24;;;;;;;4.47;3.40;;;;;;;10.41;75.69;101881.25;4952970;29;20051;-59
2024/01/26 07:27:52;;;;;;;5.53;3.67;;;;;;;10.42;75.46;101880.22;4965180;29;20070;-59
2024/01/26 07:30:20;;;;;;;8.38;3.97;;;;;;;10.41;76.29;101882.06;4960987;28;20043;-59
2024/01/26 07:32:48;;;;;;;4.60;3.35;;;;;;;10.41;76.57;101868.63;4952710;28;20051;-59
2024/01/26 07:35:17;;;;;;;4.53;3.47;;;;;;;10.40;76.62;101863.50;4963266;29;20150;-59
2024/01/26 07:37:45;;;;;;;4.72;3.45;;;;;;;10.39;76.60;101853.75;4958521;29;20051;-58
2024/01/26 07:40:13;;;;;;;4.63;3.28;;;;;;;10.36;76.23;101841.56;4964634;29;20123;-59
2024/01/26 07:42:41;;;;;;;4.90;3.00;;;;;;;10.42;76.75;101854.16;4961671;28;20044;-58
2024/01/26 07:45:09;;;;;;;6.85;3.38;;;;;;;10.40;76.66;101858.91;4963870;28;20051;-59
2024/01/26 07:47:37;;;;;;;6.10;3.85;;;;;;;10.39;76.60;101849.22;4961738;29;20103;-59
2024/01/26 07:50:06;;;;;;;5.38;2.95;;;;;;;10.51;76.92;101862.09;4961729;29;20115;-59
2024/01/26 07:52:36;;;;;;;4.20;2.90;;;;;;;10.47;76.13;101872.41;4960988;29;20047;-59
2024/01/26 07:55:05;;;;;;;6.60;3.10;;;;;;;10.54;76.08;101877.81;4961032;29;20137;-58
2024/01/26 07:57:34;;;;;;;5.43;3.47;;;;;;;10.50;76.30;101890.81;4965299;28;20441;-58
2024/01/26 08:00:01;;;;;;;5.18;3.47;;;;;;;10.47;76.40;101903.81;4957563;28;20422;-59
2024/01/26 08:02:30;;;;;;;4.80;3.00;;;;;;;10.52;76.42;101893.31;4961731;29;20051;-59
2024/01/26 08:04:58;;;;;;;9.90;3.97;;;;;;;10.47;76.59;101914.56;4961780;28;20063;-59
2024/01/26 08:07:26;;;;;;;5.38;3.00;;;;;;;10.44;76.52;101905.03;4959263;29;20047;-60
2024/01/26 08:09:55;;;;;;;6.45;3.75;;;;;;;10.44;76.82;101922.00;4965096;29;20055;-58
2024/01/26 08:12:23;;;;;;;7.10;3.78;;;;;;;10.44;76.71;101926.53;4963900;29;20065;-58
2024/01/26 08:15:10;;;;;;;5.22;3.50;;;;;;;10.43;76.72;101923.03;4962376;29;20070;-59
2024/01/26 08:17:39;;;;;;;6.53;3.42;;;;;;;10.41;76.90;101919.69;4958515;29;20062;-60
2024/01/26 08:20:08;;;;;;;4.95;3.80;;;;;;;10.43;76.98;101928.41;4954183;29;20060;-58
2024/01/26 08:22:39;;;;;;;5.05;3.25;;;;;;;10.51;76.81;101921.22;4952770;29;20050;-58
2024/01/26 08:25:09;;;;;;;5.82;3.40;;;;;;;10.48;76.65;101935.88;4964125;28;20059;-58
2024/01/26 08:27:38;;;;;;;4.55;3.13;;;;;;;10.45;76.85;101930.88;4967407;29;20635;-58
2024/01/26 08:30:06;;;;;;;4.95;3.17;;;;;;;10.44;76.99;101927.38;4964384;29;20059;-60
2024/01/26 08:32:35;;;;;;;5.55;3.10;;;;;;;10.48;76.81;101938.56;4959453;29;20055;-59
2024/01/26 08:35:03;;;;;;;4.65;2.97;;;;;;;10.47;76.97;101931.53;4967470;29;20044;-59
2024/01/26 08:37:31;;;;;;;7.07;3.50;;;;;;;10.45;77.03;101925.50;4964307;29;20055;-59
2024/01/26 08:39:59;;;;;;;5.82;3.35;;;;;;;10.46;77.03;101932.56;4968348;29;20055;-59
2024/01/26 08:42:28;;;;;;;3.78;2.60;;;;;;;10.44;77.15;101937.28;4966557;29;20461;-59
2024/01/26 08:44:56;;;;;;;3.88;2.50;;;;;;;10.46;77.43;101927.19;4963421;29;20099;-58
2024/01/26 08:47:22;;;;;;;6.18;3.22;;;;;;;10.46;77.41;101932.56;4967105;29;20059;-58
2024/01/26 08:49:50;;;;;;;5.22;3.03;;;;;;;10.54;77.15;101940.47;4967303;29;20193;-60
2024/01/26 08:52:18;;;;;;;4.13;2.80;;;;;;;10.69;76.95;101937.69;4966557;29;20052;-60
2024/01/26 08:54:46;;;;;;;3.53;2.78;;;;;;;10.85;76.15;101928.50;4958180;29;20102;-60
2024/01/26 08:57:14;;;;;;;6.05;3.30;;;;;;;11.02;75.74;101944.13;4964558;29;20109;-60
2024/01/26 08:59:44;;;;;;;3.67;2.88;;;;;;;11.17;75.46;101938.63;4955453;29;20090;-60
2024/01/26 09:02:12;;;;;;;4.35;2.90;;;;;;;11.32;74.81;101933.09;4966806;29;20462;-59
2024/01/26 09:04:40;;;;;;;4.35;2.53;;;;;;;11.48;74.44;101927.38;4967166;29;20063;-59
2024/01/26 09:07:08;;;;;;;3.45;2.55;;;;;;;11.61;73.53;101938.19;4952492;29;20063;-60
2024/01/26 09:09:38;;;;;;;5.25;2.80;;;;;;;11.68;73.02;101936.34;4952629;29;20051;-59
2024/01/26 09:12:07;;;;;;;6.15;2.92;;;;;;;11.67;73.17;101925.78;4965633;29;20043;-60
2024/01/26 09:14:35;;;;;;;4.88;2.78;;;;;;;11.59;73.54;101945.63;4965576;29;20067;-60
2024/01/26 09:17:04;;;;;;;9.45;2.30;;;;;;;11.47;74.32;101941.88;4966770;29;20047;-60
2024/01/26 09:19:32;;;;;;;4.35;2.50;;;;;;;11.35;74.39;101957.75;4963093;29;20101;-59
2024/01/26 09:22:00;;;;;;;4.35;2.40;;;;;;;11.27;75.16;101967.84;4966012;29;20058;-61
2024/01/26 09:24:28;;;;;;;7.00;2.88;;;;;;;11.20;75.42;101983.13;4967522;29;20048;-60
2024/01/26 09:26:57;;;;;;;5.13;2.42;;;;;;;11.27;75.75;101994.75;4960056;29;20051;-59
2024/01/26 09:29:26;;;;;;;6.35;2.72;;;;;;;11.16;76.08;102016.84;4965384;29;20051;-59
2024/01/26 09:31:56;;;;;;;5.07;2.67;;;;;;;11.09;76.67;102011.41;4958232;29;20059;-59
2024/01/26 09:34:26;;;;;;;4.88;2.63;;;;;;;11.05;77.29;102018.22;4956683;29;20133;-59
2024/01/26 09:36:54;;;;;;;6.53;2.75;;;;;;;11.02;77.10;102021.31;4963357;28;20048;-59
2024/01/26 09:39:24;;;;;;;4.53;2.40;;;;;;;10.99;77.72;102014.44;4967844;29;20051;-63
2024/01/26 09:41:52;;;;;;;3.95;2.50;;;;;;;10.96;77.36;102032.84;4961966;29;20051;-60
2024/01/26 09:44:21;;;;;;;11.05;2.90;;;;;;;10.97;77.92;102035.34;4966150;29;20251;-59
2024/01/26 09:46:49;;;;;;;4.90;2.38;;;;;;;10.95;77.44;102053.53;4970121;28;20115;-59
2024/01/26 09:49:17;;;;;;;7.38;2.97;;;;;;;11.04;77.21;102062.28;4959535;29;20555;-61
2024/01/26 09:51:47;;;;;;;8.40;2.53;;;;;;;11.19;76.53;102089.09;4965165;29;20051;-60
2024/01/26 09:54:19;;;;;;;7.88;2.08;;;;;;;11.28;75.79;102082.53;4963928;29;20043;-61
2024/01/26 09:56:50;;;;;;;6.65;2.15;;;;;;;11.47;74.94;102111.47;4959734;29;20087;-60
2024/01/26 09:59:18;;;;;;;15.02;2.13;;;;;;;11.50;74.31;102119.16;4959281;29;20066;-61
2024/01/26 10:01:47;;;;;;;7.05;2.35;;;;;;;11.58;73.26;102148.59;4964496;29;20569;-60
2024/01/26 10:04:15;;;;;;;8.35;2.17;;;;;;;11.41;71.82;102150.75;4966003;29;20061;-60
2024/01/26 10:06:43;;;;;;;10.45;2.45;;;;;;;11.32;70.98;102161.88;4964870;29;20059;-61
2024/01/26 10:09:13;;;;;;;5.47;1.90;;;;;;;11.20;71.03;102176.88;4965935;29;20055;-64
2024/01/26 10:11:41;;;;;;;12.57;2.47;;;;;;;11.05;70.61;102169.69;4957760;29;20111;-61
2024/01/26 10:14:09;;;;;;;17.60;2.15;;;;;;;11.01;70.83;102181.88;4951690;29;20055;-60
2024/01/26 10:16:37;;;;;;;11.82;2.50;;;;;;;10.98;71.44;102190.31;4965145;29;20070;-60
2024/01/26 10:19:05;;;;;;;8.75;2.10;;;;;;;10.93;71.07;102197.31;4960492;29;20051;-61
2024/01/26 10:21:33;;;;;;;11.57;2.97;;;;;;;10.77;71.23;102179.56;4963087;29;20051;-61
2024/01/26 10:24:02;;;;;;;16.02;2.30;;;;;;;10.81;71.63;102199.66;4961750;29;20048;-61
2024/01/26 10:26:31;;;;;;;8.70;2.33;;;;;;;10.80;71.73;102198.00;4971828;28;20051;-59
2024/01/26 10:28:59;;;;;;;10.05;2.30;;;;;;;10.76;72.29;102212.84;4964348;29;20131;-60
2024/01/26 10:31:27;;;;;;;15.00;2.33;;;;;;;10.74;72.31;102222.94;4962380;29;20118;-61
2024/01/26 10:33:56;;;;;;;11.82;3.58;;;;;;;10.73;72.25;102216.75;4964191;29;20138;-59
2024/01/26 10:36:27;;;;;;;9.75;2.60;;;;;;;10.69;72.32;102211.94;4955216;28;20051;-61
2024/01/26 10:38:56;;;;;;;11.98;2.65;;;;;;;10.68;71.57;102224.53;4962428;28;20102;-59
2024/01/26 10:41:32;;;;;;;8.32;2.15;;;;;;;10.71;71.71;102236.78;4960369;29;20059;-61
2024/01/26 10:44:01;;;;;;;18.05;2.80;;;;;;;10.66;71.40;102242.72;4962926;29;20076;-61
2024/01/26 10:46:29;;;;;;;15.88;2.72;;;;;;;10.50;71.26;102221.41;4962266;29;20106;-60
2024/01/26 10:48:57;;;;;;;15.50;2.67;;;;;;;10.58;71.36;102247.38;4962267;28;20087;-60
2024/01/26 10:51:27;;;;;;;10.82;2.70;;;;;;;10.54;70.35;102259.50;4964028;28;20046;-60
2024/01/26 10:53:57;;;;;;;14.38;2.35;;;;;;;10.51;70.01;102263.41;4961457;29;20071;-60
2024/01/26 10:56:25;;;;;;;16.10;3.58;;;;;;;10.51;69.76;102259.88;4962393;29;20047;-59
2024/01/26 10:58:54;;;;;;;9.15;2.50;;;;;;;10.49;69.87;102276.19;4960250;28;20110;-60
2024/01/26 11:01:22;;;;;;;6.22;1.70;;;;;;;10.47;67.76;102290.84;4961264;29;20055;-59
2024/01/26 11:03:50;;;;;;;12.85;2.42;;;;;;;10.48;67.20;102289.81;4960543;29;20051;-59
2024/01/26 11:06:18;;;;;;;9.63;2.88;;;;;;;10.49;67.54;102295.00;4963762;29;20055;-60
2024/01/26 11:08:47;;;;;;;9.52;2.25;;;;;;;10.49;67.28;102300.41;4956382;28;20083;-58
2024/01/26 11:11:22;;;;;;;10.15;2.35;;;;;;;10.47;66.70;102323.09;4959310;29;20116;-59
2024/01/26 11:13:53;;;;;;;10.32;2.05;;;;;;;10.48;67.17;102322.09;4962783;29;20051;-59
2024/01/26 11:16:25;;;;;;;13.38;2.83;;;;;;;10.36;66.01;102317.19;4960796;29;20055;-58
2024/01/26 11:18:58;;;;;;;11.60;1.98;;;;;;;10.42;65.47;102348.69;4964347;29;20047;-58
2024/01/26 11:21:36;;;;;;;6.68;2.25;;;;;;;10.39;64.57;102364.38;4950509;29;20051;-59
2024/01/26 11:24:14;;;;;;;10.85;2.22;;;;;;;10.34;62.67;102388.28;4964236;29;20047;-59
2024/01/26 11:26:42;;;;;;;5.05;1.33;;;;;;;10.27;60.96;102390.84;4958297;29;20082;-59
2024/01/26 11:29:12;;;;;;;5.68;1.40;;;;;;;10.21;59.41;102377.31;4965177;28;20055;-60
2024/01/26 11:31:41;;;;;;;9.18;1.40;;;;;;;10.06;56.66;102401.41;4961138;29;20073;-60